Bishop, CA

3:12 AM PDT on July 23, 2014 (GMT -0700)
Bishop (KBIH) Elev 4144 ft | 37.37 °N, 118.36 °W | Change Station

Current weather conditions updated 16 minutes ago

Clear
Clear
58 °F
Feels Like 58 °F
N
6
Wind Variable Wind from North

Today is forecast to be nearly the same temperature as yesterday.

Today
High -- | Low -- °F
--% Chance of Precip.
Yesterday
High -- | Low -- °F
Precip. -- in
5:50 AM 8:08 PM
Waning Crescent, 11% visible
Pressure 29.97 in
Visibility 10.0 miles
Clouds Clear
Dew Point 36 °F
Humidity 44%
Rainfall 0.00 in
Snow Depth Not available.
UV 0 out of 12
Pollen 5.20 out of 12
Air Quality Not available.
Flu Activity Not available.
METAR KBIH 230956Z AUTO 35005KT 10SM CLR 14/02 A3012 RMK AO2 SLP147 T01440022

More Conditions Fewer Conditions

Pressure 29.97 in
Visibility 10.0 miles
Clouds Clear
Dew Point 36 °F
Humidity 44%
Rainfall 0.00 in
Snow Depth Not available.
UV 0 out of 12
Pollen 5.20 out of 12
Air Quality Not available.
Flu Activity Not available.
METAR KBIH 230956Z AUTO 35005KT 10SM CLR 14/02 A3012 RMK AO2 SLP147 T01440022

More Conditions Fewer Conditions

10-Day Weather Forecast

Almanac

Astronomy

Jul. 23, 2014 Rise Set
Actual Time 5:50 AM PDT 8:08 PM PDT
Civil Twilight 5:21 AM PDT 8:38 PM PDT
Nautical Twilight 4:44 AM PDT 9:14 PM PDT
Astronomical Twilight 4:04 AM PDT 9:54 PM PDT
Moon 3:12 AM PDT 5:41 PM PDT
Length of Visible Light 15h 17m
Length of Day
14h 18m
Tomorrow will be 1m 33s shorter.
Waning Crescent, 11% of the Moon is Illuminated
Today
Waning Crescent
Jul 26
New
Aug 3
First Quarter
Aug 10
Full
Aug 17
Last Quarter

Today's Extremes

State Highs State Lows

Community

WunderPhotos

Upload Photos

1,736,535 photos uploaded!

Nearby

Snow Depth

Station Depth Elevation
Leavitt Lake 0 in 9400 ft
Leavitt Meadows 1 in 7200 ft
Summit Meadow 1 in 9122 ft
Monitor Pass 1 in 8350 ft
Forestdale Creek 0 in 8029 ft

Earthquake Activity

City Distance Mag. Time & Date
No recent earthquake activity has been reported nearby.
Minimum magnitude displayed is 2.5.

Coastal Water Temperatures

Place Temperature
No Stations Reporting

Nearby Weather Stations

Station Location Temp. Windchill Dew Point Humidity Wind Precip. Elev Updated Type
Wilkerson, Bishop, CA 71.6 °F - 26 °F 18% West  at  0.0 mph 0.00 in / hr 4446 ft 3:12 AM PDT Rapid Fire
RAWS ROCK CREEK CA, Crowley Lake, CA 52 °F - 34 °F 51% WSW  at  3 mph 0.00 in / hr 7103 ft 2:04 AM PDT MADIS
SOUTH LAKE, Bishop, CA 54.0 °F - 7 °F 15% East  at  3.0 mph - / hr 9648 ft 2:33 AM PDT Normal
BIG PINE CREEK, Big Pine, CA 29.0 °F 29 °F - - North  at  - - / hr 9652 ft 2:45 AM PDT Normal
SAWMILL, Bishop, CA 47.0 °F 47 °F 16 °F 28% North  at  - - / hr 10275 ft 2:48 AM PDT Normal
ROCK CREEK LAKES, Bishop, CA 30.0 °F 30 °F - - North  at  - - / hr 10019 ft 1:17 AM PDT Normal

Show More Stations Show Fewer Stations